Time,TemperatureF,DewpointF,PressureIn,WindDirection,WindDirectionDegrees,WindSpeedMPH,WindSpeedGustMPH,Humidity,HourlyPrecipIn,Conditions,Clouds,dailyrainin,SoftwareType,DateUTC
2013-03-28 00:02:00,30.0,27.0,30.31,North,0,0.0,0.0,88,0.00,,,0.00,,2013-03-28 05:02:00,
2013-03-28 00:12:00,30.0,27.0,30.31,North,0,0.0,0.0,88,0.00,,,0.00,,2013-03-28 05:12:00,
2013-03-28 00:22:00,30.0,27.0,30.31,North,0,0.0,0.0,88,0.00,,,0.00,,2013-03-28 05:22:00,
2013-03-28 00:32:00,30.0,27.0,30.31,North,0,0.0,0.0,89,0.00,,,0.00,,2013-03-28 05:32:00,
2013-03-28 00:42:00,30.0,27.0,30.31,North,0,0.0,0.0,89,0.00,,,0.00,,2013-03-28 05:42:00,
2013-03-28 00:52:00,29.0,26.0,30.31,North,0,0.0,0.0,89,0.00,,,0.00,,2013-03-28 05:52:00,
2013-03-28 01:02:00,29.0,26.0,30.31,North,0,0.0,0.0,89,0.00,,,0.00,,2013-03-28 06:02:00,
2013-03-28 01:12:00,29.0,26.0,30.31,North,0,0.0,0.0,89,0.00,,,0.00,,2013-03-28 06:12:00,
2013-03-28 02:02:00,29.0,27.0,30.32,North,0,0.0,0.0,92,0.00,,,0.00,,2013-03-28 07:02:00,
2013-03-28 02:12:00,29.0,27.0,30.32,North,0,0.0,0.0,92,0.00,,,0.00,,2013-03-28 07:12:00,
2013-03-28 02:22:00,29.0,27.0,30.32,WNW,287,2.0,5.0,92,0.00,,,0.00,,2013-03-28 07:22:00,
2013-03-28 02:32:00,29.0,27.0,30.32,West,277,3.0,5.0,92,0.00,,,0.00,,2013-03-28 07:32:00,
2013-03-28 02:42:00,29.0,27.0,30.32,West,277,3.0,5.0,92,0.00,,,0.00,,2013-03-28 07:42:00,
2013-03-28 02:52:00,28.0,26.0,30.32,West,269,5.0,6.0,92,0.00,,,0.00,,2013-03-28 07:52:00,
2013-03-28 03:02:00,28.0,26.0,30.32,WSW,258,5.0,5.0,92,0.00,,,0.00,,2013-03-28 08:02:00,
2013-03-28 03:12:00,28.0,26.0,30.32,WSW,258,5.0,5.0,92,0.00,,,0.00,,2013-03-28 08:12:00,
2013-03-28 03:21:00,28.0,26.0,30.32,North,0,0.0,0.0,92,0.00,,,0.00,,2013-03-28 08:21:00,
2013-03-28 03:32:00,28.0,26.0,30.32,North,0,0.0,0.0,92,0.00,,,0.00,,2013-03-28 08:32:00,
2013-03-28 03:42:00,28.0,26.0,30.32,North,0,0.0,0.0,92,0.00,,,0.00,,2013-03-28 08:42:00,
2013-03-28 03:52:00,28.0,27.0,30.32,North,0,0.0,0.0,94,0.00,,,0.00,,2013-03-28 08:52:00,
2013-03-28 04:02:00,28.0,27.0,30.32,North,0,0.0,0.0,94,0.00,,,0.00,,2013-03-28 09:02:00,
2013-03-28 04:12:00,28.0,27.0,30.32,North,0,0.0,0.0,94,0.00,,,0.00,,2013-03-28 09:12:00,
2013-03-28 04:22:00,28.0,27.0,30.32,North,0,0.0,0.0,94,0.00,,,0.00,,2013-03-28 09:22:00,
2013-03-28 04:32:00,28.0,27.0,30.32,North,0,0.0,0.0,94,0.00,,,0.00,,2013-03-28 09:32:00,
2013-03-28 04:42:00,28.0,27.0,30.32,North,0,0.0,0.0,94,0.00,,,0.00,,2013-03-28 09:42:00,
2013-03-28 04:52:00,28.0,27.0,30.32,North,0,0.0,0.0,94,0.00,,,0.00,,2013-03-28 09:52:00,
2013-03-28 05:03:00,28.0,26.0,30.32,North,0,0.0,0.0,93,0.00,,,0.00,,2013-03-28 10:03:00,
2013-03-28 05:12:00,28.0,26.0,30.32,North,0,0.0,0.0,93,0.00,,,0.00,,2013-03-28 10:12:00,
2013-03-28 05:22:00,28.0,26.0,30.32,North,0,0.0,0.0,93,0.00,,,0.00,,2013-03-28 10:22:00,
2013-03-28 05:33:00,27.0,26.0,30.32,North,0,0.0,0.0,94,0.00,,,0.00,,2013-03-28 10:33:00,
2013-03-28 05:42:00,27.0,26.0,30.32,North,0,0.0,0.0,94,0.00,,,0.00,,2013-03-28 10:42:00,
2013-03-28 06:02:00,27.0,26.0,30.32,North,0,0.0,0.0,94,0.00,,,0.00,,2013-03-28 11:02:00,
2013-03-28 06:12:00,27.0,26.0,30.32,North,0,0.0,0.0,94,0.00,,,0.00,,2013-03-28 11:12:00,
2013-03-28 06:22:00,27.0,26.0,30.32,North,0,0.0,0.0,94,0.00,,,0.00,,2013-03-28 11:22:00,
2013-03-28 06:32:00,27.0,26.0,30.33,North,0,0.0,0.0,94,0.00,,,0.00,,2013-03-28 11:32:00,
2013-03-28 06:42:00,27.0,26.0,30.33,North,0,0.0,0.0,94,0.00,,,0.00,,2013-03-28 11:42:00,
2013-03-28 06:52:00,28.0,26.0,30.33,North,0,0.0,0.0,93,0.00,,,0.00,,2013-03-28 11:52:00,
2013-03-28 07:02:00,27.0,25.0,30.33,North,0,0.0,0.0,93,0.00,,,0.00,,2013-03-28 12:02:00,
2013-03-28 07:12:00,27.0,25.0,30.33,North,0,0.0,0.0,93,0.00,,,0.00,,2013-03-28 12:12:00,
2013-03-28 07:22:00,28.0,26.0,30.34,North,0,0.0,0.0,93,0.00,,,0.00,,2013-03-28 12:22:00,
2013-03-28 07:32:00,29.0,27.0,30.34,North,0,0.0,0.0,93,0.00,,,0.00,,2013-03-28 12:32:00,
2013-03-28 07:42:00,29.0,27.0,30.34,North,0,0.0,0.0,93,0.00,,,0.00,,2013-03-28 12:42:00,
2013-03-28 07:52:00,31.0,28.0,30.34,North,0,0.0,0.0,89,0.00,,,0.00,,2013-03-28 12:52:00,
2013-03-28 08:02:00,31.0,28.0,30.34,North,0,0.0,0.0,89,0.00,,,0.00,,2013-03-28 13:02:00,
2013-03-28 08:12:00,31.0,28.0,30.34,North,0,0.0,0.0,89,0.00,,,0.00,,2013-03-28 13:12:00,
2013-03-28 08:22:00,39.0,31.0,30.35,North,0,0.0,0.0,74,0.00,,,0.00,,2013-03-28 13:22:00,
2013-03-28 08:32:00,43.0,32.0,30.35,North,0,0.0,0.0,64,0.00,,,0.00,,2013-03-28 13:32:00,
2013-03-28 08:42:00,43.0,32.0,30.35,North,0,0.0,0.0,64,0.00,,,0.00,,2013-03-28 13:42:00,
2013-03-28 08:52:00,46.0,33.0,30.35,North,0,0.0,0.0,61,0.00,,,0.00,,2013-03-28 13:52:00,
2013-03-28 09:02:00,49.0,34.0,30.35,North,0,0.0,0.0,57,0.00,,,0.00,,2013-03-28 14:02:00,
2013-03-28 09:12:00,49.0,34.0,30.35,North,0,0.0,0.0,57,0.00,,,0.00,,2013-03-28 14:12:00,
2013-03-28 09:22:00,52.0,34.0,30.35,North,0,0.0,0.0,50,0.00,,,0.00,,2013-03-28 14:22:00,
2013-03-28 09:32:00,54.0,33.0,30.35,North,0,0.0,0.0,44,0.00,,,0.00,,2013-03-28 14:32:00,
2013-03-28 09:42:00,54.0,33.0,30.35,North,0,0.0,0.0,44,0.00,,,0.00,,2013-03-28 14:42:00,
2013-03-28 09:51:00,54.0,33.0,30.35,North,0,0.0,0.0,44,0.00,,,0.00,,2013-03-28 14:51:00,
2013-03-28 10:02:00,56.0,33.0,30.35,North,0,0.0,0.0,42,0.00,,,0.00,,2013-03-28 15:02:00,
2013-03-28 10:12:00,56.0,33.0,30.35,North,0,0.0,0.0,42,0.00,,,0.00,,2013-03-28 15:12:00,
2013-03-28 10:22:00,56.0,32.0,30.35,North,0,0.0,0.0,40,0.00,,,0.00,,2013-03-28 15:22:00,
2013-03-28 10:33:00,56.0,32.0,30.35,North,0,0.0,0.0,40,0.00,,,0.00,,2013-03-28 15:33:00,
2013-03-28 10:43:00,56.0,32.0,30.35,North,0,0.0,0.0,40,0.00,,,0.00,,2013-03-28 15:43:00,
2013-03-28 10:52:00,57.0,31.0,30.35,North,0,0.0,0.0,37,0.00,,,0.00,,2013-03-28 15:52:00,
2013-03-28 11:02:00,56.0,31.0,30.35,North,355,0.0,0.0,39,0.00,,,0.00,,2013-03-28 16:02:00,
2013-03-28 11:12:00,56.0,31.0,30.35,North,355,0.0,0.0,39,0.00,,,0.00,,2013-03-28 16:12:00,
2013-03-28 11:23:00,57.0,32.0,30.35,WSW,253,1.0,0.0,38,0.00,,,0.00,,2013-03-28 16:23:00,
2013-03-28 11:32:00,57.0,32.0,30.35,North,0,0.0,0.0,38,0.00,,,0.00,,2013-03-28 16:32:00,
2013-03-28 11:42:00,57.0,32.0,30.35,North,0,0.0,0.0,38,0.00,,,0.00,,2013-03-28 16:42:00,
2013-03-28 11:52:00,57.0,33.0,30.35,North,355,0.0,0.0,40,0.00,,,0.00,,2013-03-28 16:52:00,
2013-03-28 12:02:00,57.0,33.0,30.35,North,0,0.0,0.0,40,0.00,,,0.00,,2013-03-28 17:02:00,
2013-03-28 12:12:00,57.0,33.0,30.35,North,0,0.0,0.0,40,0.00,,,0.00,,2013-03-28 17:12:00,
2013-03-28 12:22:00,57.0,32.0,30.34,North,0,0.0,0.0,39,0.00,,,0.00,,2013-03-28 17:22:00,
2013-03-28 12:32:00,55.0,32.0,30.34,West,267,3.0,5.0,42,0.00,,,0.00,,2013-03-28 17:32:00,
2013-03-28 12:42:00,55.0,32.0,30.34,West,267,3.0,5.0,42,0.00,,,0.00,,2013-03-28 17:42:00,
2013-03-28 12:52:00,53.0,31.0,30.34,North,3,1.0,0.0,43,0.00,,,0.00,,2013-03-28 17:52:00,
2013-03-28 13:02:00,54.0,35.0,30.33,SW,224,3.0,7.0,48,0.00,,,0.00,,2013-03-28 18:02:00,
2013-03-28 13:12:00,54.0,35.0,30.33,SW,224,3.0,7.0,48,0.00,,,0.00,,2013-03-28 18:12:00,
2013-03-28 13:22:00,54.0,32.0,30.33,North,355,0.0,0.0,43,0.00,,,0.00,,2013-03-28 18:22:00,
2013-03-28 13:32:00,51.0,30.0,30.32,NNW,347,1.0,0.0,45,0.00,,,0.00,,2013-03-28 18:32:00,
2013-03-28 13:42:00,51.0,30.0,30.32,NNW,347,1.0,0.0,45,0.00,,,0.00,,2013-03-28 18:42:00,
2013-03-28 13:52:00,52.0,32.0,30.32,North,0,0.0,0.0,47,0.00,,,0.00,,2013-03-28 18:52:00,
2013-03-28 14:02:00,52.0,32.0,30.32,North,0,0.0,0.0,47,0.00,,,0.00,,2013-03-28 19:02:00,
2013-03-28 14:12:00,52.0,32.0,30.32,North,0,0.0,0.0,47,0.00,,,0.00,,2013-03-28 19:12:00,
2013-03-28 14:22:00,51.0,34.0,30.31,SSW,196,7.0,8.0,52,0.00,,,0.00,,2013-03-28 19:22:00,
2013-03-28 14:33:00,52.0,32.0,30.31,WSW,251,1.0,3.0,46,0.00,,,0.00,,2013-03-28 19:33:00,
2013-03-28 14:42:00,52.0,32.0,30.31,WSW,251,1.0,3.0,46,0.00,,,0.00,,2013-03-28 19:42:00,
2013-03-28 14:52:00,52.0,34.0,30.30,SSW,198,5.0,5.0,50,0.00,,,0.00,,2013-03-28 19:52:00,
2013-03-28 15:03:00,51.0,33.0,30.29,SW,225,1.0,3.0,50,0.00,,,0.00,,2013-03-28 20:03:00,
2013-03-28 15:12:00,51.0,33.0,30.29,SW,225,1.0,3.0,50,0.00,,,0.00,,2013-03-28 20:12:00,
2013-03-28 15:22:00,50.0,34.0,30.29,North,358,0.0,7.0,53,0.00,,,0.00,,2013-03-28 20:22:00,
2013-03-28 15:32:00,50.0,32.0,30.28,North,0,0.0,0.0,50,0.00,,,0.00,,2013-03-28 20:32:00,
2013-03-28 15:42:00,50.0,32.0,30.28,North,0,0.0,0.0,50,0.00,,,0.00,,2013-03-28 20:42:00,
2013-03-28 15:52:00,50.0,33.0,30.27,South,180,1.0,0.0,52,0.00,,,0.00,,2013-03-28 20:52:00,
2013-03-28 16:02:00,50.0,33.0,30.27,North,0,0.0,0.0,51,0.00,,,0.00,,2013-03-28 21:02:00,
2013-03-28 16:12:00,50.0,33.0,30.27,North,0,0.0,0.0,51,0.00,,,0.00,,2013-03-28 21:12:00,
2013-03-28 16:22:00,51.0,33.0,30.27,SSW,202,0.0,0.0,49,0.00,,,0.00,,2013-03-28 21:22:00,
2013-03-28 16:32:00,51.0,33.0,30.27,SSW,202,0.0,0.0,49,0.00,,,0.00,,2013-03-28 21:32:00,
2013-03-28 16:43:00,51.0,33.0,30.27,SSW,202,0.0,0.0,49,0.00,,,0.00,,2013-03-28 21:43:00,
2013-03-28 17:03:00,49.0,32.0,30.26,North,2,2.0,8.0,52,0.00,,,0.00,,2013-03-28 22:03:00,
2013-03-28 17:12:00,49.0,32.0,30.26,North,2,2.0,8.0,52,0.00,,,0.00,,2013-03-28 22:12:00,
2013-03-28 17:22:00,50.0,33.0,30.26,SSW,199,2.0,0.0,52,0.00,,,0.00,,2013-03-28 22:22:00,
2013-03-28 17:32:00,50.0,34.0,30.25,North,358,0.0,5.0,53,0.00,,,0.00,,2013-03-28 22:32:00,
2013-03-28 17:42:00,50.0,34.0,30.25,North,358,0.0,5.0,53,0.00,,,0.00,,2013-03-28 22:42:00,
2013-03-28 17:52:00,49.0,34.0,30.25,South,169,0.0,8.0,56,0.00,,,0.00,,2013-03-28 22:52:00,
2013-03-28 18:02:00,49.0,33.0,30.25,South,189,3.0,5.0,54,0.00,,,0.00,,2013-03-28 23:02:00,
2013-03-28 18:12:00,49.0,33.0,30.25,South,189,3.0,5.0,54,0.00,,,0.00,,2013-03-28 23:12:00,
2013-03-28 18:22:00,49.0,35.0,30.25,SSW,197,7.0,8.0,58,0.00,,,0.00,,2013-03-28 23:22:00,
2013-03-28 18:32:00,48.0,34.0,30.25,South,173,7.0,8.0,59,0.00,,,0.00,,2013-03-28 23:32:00,
2013-03-28 18:42:00,48.0,34.0,30.25,South,173,7.0,8.0,59,0.00,,,0.00,,2013-03-28 23:42:00,
2013-03-28 18:52:00,48.0,35.0,30.25,SSW,193,7.0,9.0,61,0.00,,,0.00,,2013-03-28 23:52:00,
2013-03-28 19:02:00,48.0,35.0,30.25,SSW,193,7.0,9.0,61,0.00,,,0.00,,2013-03-29 00:02:00,
2013-03-28 19:12:00,48.0,35.0,30.25,SSW,193,7.0,9.0,61,0.00,,,0.00,,2013-03-29 00:12:00,
2013-03-28 19:22:00,46.0,36.0,30.26,South,189,8.0,10.0,68,0.00,,,0.00,,2013-03-29 00:22:00,
2013-03-28 19:32:00,44.0,36.0,30.26,SSW,198,7.0,9.0,74,0.00,,,0.00,,2013-03-29 00:32:00,
2013-03-28 19:42:00,44.0,36.0,30.26,SSW,198,7.0,9.0,74,0.00,,,0.00,,2013-03-29 00:42:00,
2013-03-28 19:52:00,43.0,36.0,30.26,SSW,196,7.0,8.0,77,0.00,,,0.00,,2013-03-29 00:52:00,
2013-03-28 20:02:00,42.0,37.0,30.26,SSW,197,8.0,9.0,81,0.00,,,0.00,,2013-03-29 01:02:00,
2013-03-28 20:12:00,42.0,37.0,30.26,SSW,197,8.0,9.0,81,0.00,,,0.00,,2013-03-29 01:12:00,
2013-03-28 20:22:00,41.0,36.0,30.27,SSW,209,10.0,10.0,83,0.00,,,0.00,,2013-03-29 01:22:00,
2013-03-28 20:32:00,40.0,36.0,30.27,South,188,10.0,10.0,85,0.00,,,0.00,,2013-03-29 01:32:00,
2013-03-28 20:42:00,40.0,36.0,30.27,South,188,10.0,10.0,85,0.00,,,0.00,,2013-03-29 01:42:00,
2013-03-28 20:52:00,39.0,35.0,30.27,SSW,205,10.0,10.0,86,0.00,,,0.00,,2013-03-29 01:52:00,
2013-03-28 21:02:00,39.0,35.0,30.27,SW,214,8.0,8.0,84,0.00,,,0.00,,2013-03-29 02:02:00,
2013-03-28 21:12:00,39.0,35.0,30.27,SW,214,8.0,8.0,84,0.00,,,0.00,,2013-03-29 02:12:00,
2013-03-28 21:22:00,39.0,34.0,30.27,SSW,199,8.0,8.0,83,0.00,,,0.00,,2013-03-29 02:22:00,
2013-03-28 21:32:00,39.0,35.0,30.28,South,185,7.0,7.0,84,0.00,,,0.00,,2013-03-29 02:32:00,
2013-03-28 21:42:00,39.0,35.0,30.28,South,185,7.0,7.0,84,0.00,,,0.00,,2013-03-29 02:42:00,
2013-03-28 21:52:00,39.0,34.0,30.28,SSW,201,7.0,7.0,83,0.00,,,0.00,,2013-03-29 02:52:00,
2013-03-28 22:02:00,39.0,34.0,30.28,SSW,205,6.0,6.0,83,0.00,,,0.00,,2013-03-29 03:02:00,
2013-03-28 22:12:00,39.0,34.0,30.28,SSW,205,6.0,6.0,83,0.00,,,0.00,,2013-03-29 03:12:00,
2013-03-28 22:22:00,39.0,34.0,30.28,SSW,206,3.0,0.0,82,0.00,,,0.00,,2013-03-29 03:22:00,
2013-03-28 22:32:00,39.0,34.0,30.28,North,0,0.0,0.0,82,0.00,,,0.00,,2013-03-29 03:32:00,
2013-03-28 22:42:00,39.0,34.0,30.28,North,0,0.0,0.0,82,0.00,,,0.00,,2013-03-29 03:42:00,
2013-03-28 22:52:00,39.0,34.0,30.28,North,0,0.0,0.0,82,0.00,,,0.00,,2013-03-29 03:52:00,
2013-03-28 23:03:00,38.0,34.0,30.28,North,0,0.0,0.0,84,0.00,,,0.00,,2013-03-29 04:03:00,
2013-03-28 23:13:00,38.0,34.0,30.28,North,0,0.0,0.0,84,0.00,,,0.00,,2013-03-29 04:13:00,
2013-03-28 23:22:00,37.0,33.0,30.28,North,0,0.0,0.0,85,0.00,,,0.00,,2013-03-29 04:22:00,
2013-03-28 23:33:00,38.0,34.0,30.28,North,0,0.0,0.0,85,0.00,,,0.00,,2013-03-29 04:33:00,
2013-03-28 23:43:00,38.0,34.0,30.28,North,0,0.0,0.0,85,0.00,,,0.00,,2013-03-29 04:43:00,
2013-03-28 23:52:00,38.0,34.0,30.27,North,0,0.0,0.0,85,0.00,,,0.00,,2013-03-29 04:52:00,